Time;durP1;ratioP1;P1;durP2;ratioP2;P2;SDS_P1;SDS_P2;PMS_P1;PMS_P2;Temp;Humidity;BMP_temperature;BMP_pressure;BME280_temperature;BME280_humidity;BME280_pressure;Samples;Min_cycle;Max_cycle;Signal;HPM_P1;HPM_P2
2023/04/08 00:01:13;;;;;;;;;4.50;4.50;;;;;20.26;54.56;101398.27;110193;1264;19386;-39
2023/04/08 00:03:40;;;;;;;;;7.00;5.00;;;;;20.26;54.59;101401.91;110174;1251;19662;-39
2023/04/08 00:06:08;;;;;;;;;7.00;4.00;;;;;20.26;54.54;101399.34;110222;1264;20014;-39
2023/04/08 00:08:35;;;;;;;;;5.00;5.00;;;;;20.25;54.40;101403.78;110211;1250;20777;-41
2023/04/08 00:11:02;;;;;;;;;4.00;4.00;;;;;20.26;54.59;101412.45;110204;1264;18723;-39
2023/04/08 00:13:30;;;;;;;;;4.00;2.00;;;;;20.25;54.60;101411.77;110219;1264;18610;-38
2023/04/08 00:15:58;;;;;;;;;4.00;4.00;;;;;20.26;54.48;101411.54;110199;1251;20896;-39
2023/04/08 00:18:26;;;;;;;;;5.00;4.00;;;;;20.25;54.38;101415.27;110208;1264;22793;-39
2023/04/08 00:20:53;;;;;;;;;4.00;4.00;;;;;20.25;54.44;101417.21;110188;1250;20848;-39
2023/04/08 00:23:21;;;;;;;;;4.00;4.00;;;;;20.26;54.43;101419.33;110187;1264;19519;-39
2023/04/08 00:25:48;;;;;;;;;2.00;2.00;;;;;20.25;54.45;101419.05;110245;1264;18510;-39
2023/04/08 00:28:16;;;;;;;;;4.00;2.00;;;;;20.26;54.55;101416.07;110218;1264;18603;-40
2023/04/08 00:30:43;;;;;;;;;4.00;4.00;;;;;20.25;54.57;101415.79;110192;1264;22867;-40
2023/04/08 00:33:11;;;;;;;;;3.00;3.00;;;;;20.25;54.48;101419.23;110219;1264;18304;-40
2023/04/08 00:35:38;;;;;;;;;2.00;2.00;;;;;20.25;54.43;101422.73;110195;1264;19982;-40
2023/04/08 00:38:06;;;;;;;;;2.67;2.67;;;;;20.25;54.40;101422.90;110219;1264;19693;-39
2023/04/08 00:40:34;;;;;;;;;4.00;4.00;;;;;20.24;54.38;101425.65;110175;1250;19827;-38
2023/04/08 00:43:01;;;;;;;;;4.00;2.00;;;;;20.24;54.37;101426.58;110282;1264;20283;-38
2023/04/08 00:45:29;;;;;;;;;4.00;4.00;;;;;20.24;54.36;101425.69;110282;1264;19571;-38
2023/04/08 00:47:56;;;;;;;;;4.67;4.00;;;;;20.25;54.45;101426.71;110286;1264;19914;-37
2023/04/08 00:50:24;;;;;;;;;5.00;4.00;;;;;20.24;54.37;101430.79;110248;1264;19975;-38
2023/04/08 00:52:51;;;;;;;;;2.00;2.00;;;;;20.24;54.40;101428.78;110207;1264;19549;-39
2023/04/08 00:55:19;;;;;;;;;4.00;4.00;;;;;20.23;54.46;101433.95;110229;1264;18337;-39
2023/04/08 00:57:46;;;;;;;;;3.33;3.33;;;;;20.24;54.23;101435.15;110198;1264;18651;-39
2023/04/08 01:00:14;;;;;;;;;3.00;3.00;;;;;20.24;54.39;101439.47;110207;1264;19356;-38
2023/04/08 01:02:41;;;;;;;;;2.00;2.00;;;;;20.24;54.51;101439.33;110182;1264;18423;-38
2023/04/08 01:05:09;;;;;;;;;4.50;4.50;;;;;20.24;54.24;101442.36;110223;1264;19962;-39
2023/04/08 01:07:36;;;;;;;;;2.00;2.00;;;;;20.23;54.28;101443.92;110185;1251;20813;-39
2023/04/08 01:10:04;;;;;;;;;2.00;2.00;;;;;20.23;54.24;101443.21;110204;1264;18393;-39
2023/04/08 01:12:32;;;;;;;;;3.00;3.00;;;;;20.24;54.25;101443.00;110188;1250;22735;-39
2023/04/08 01:15:00;;;;;;;;;3.00;2.00;;;;;20.24;54.17;101449.67;110179;1251;20803;-39
2023/04/08 01:17:27;;;;;;;;;4.00;4.00;;;;;20.23;54.30;101450.66;110128;1264;22023;-39
2023/04/08 01:19:56;;;;;;;;;2.00;2.00;;;;;20.23;54.40;101446.30;110228;1264;18628;-39
2023/04/08 01:22:23;;;;;;;;;4.00;2.00;;;;;20.22;54.29;101451.64;110189;1264;22043;-39
2023/04/08 01:24:50;;;;;;;;;2.00;2.00;;;;;20.23;54.10;101454.70;110165;1251;19602;-39
2023/04/08 01:27:18;;;;;;;;;2.00;2.00;;;;;20.22;54.28;101450.93;110170;1264;20215;-38
2023/04/08 01:29:45;;;;;;;;;2.00;2.00;;;;;20.23;54.31;101455.90;110205;1265;20885;-38
2023/04/08 01:32:13;;;;;;;;;4.00;4.00;;;;;20.22;54.14;101452.79;110182;1251;19871;-38
2023/04/08 01:34:40;;;;;;;;;2.00;2.00;;;;;20.23;54.24;101454.33;110185;1250;22319;-39
2023/04/08 01:37:07;;;;;;;;;2.00;2.00;;;;;20.22;54.21;101453.10;110207;1260;20691;-39
2023/04/08 01:39:35;;;;;;;;;2.00;2.00;;;;;20.23;54.12;101455.25;110206;1251;19704;-40
2023/04/08 01:42:02;;;;;;;;;4.00;2.00;;;;;20.22;54.14;101452.61;110199;1250;19990;-38
2023/04/08 01:44:30;;;;;;;;;2.00;2.00;;;;;20.23;54.21;101455.05;110183;1264;19314;-39
2023/04/08 01:46:57;;;;;;;;;2.00;2.00;;;;;20.23;53.99;101458.28;110174;1264;20166;-39
2023/04/08 01:49:25;;;;;;;;;4.00;4.00;;;;;20.22;54.11;101457.88;110190;1251;20022;-40
2023/04/08 01:51:52;;;;;;;;;2.00;2.00;;;;;20.22;54.20;101459.46;110172;1264;22126;-41
2023/04/08 01:54:20;;;;;;;;;2.00;2.00;;;;;20.21;53.99;101460.81;110168;1260;19634;-37
2023/04/08 01:56:47;;;;;;;;;2.00;2.00;;;;;20.21;54.31;101464.88;110210;1264;20109;-39
2023/04/08 01:59:14;;;;;;;;;2.00;2.00;;;;;20.22;54.12;101465.14;110260;1260;20716;-39
2023/04/08 02:01:42;;;;;;;;;2.00;2.00;;;;;20.21;54.06;101468.33;110225;1264;18363;-40
2023/04/08 02:04:09;;;;;;;;;2.00;2.00;;;;;20.22;53.97;101470.95;110228;1251;19985;-39
2023/04/08 02:06:37;;;;;;;;;2.00;2.00;;;;;20.21;54.13;101470.98;110208;1264;20690;-38
2023/04/08 02:09:04;;;;;;;;;2.00;2.00;;;;;20.21;54.19;101474.30;110243;1250;19573;-39
2023/04/08 02:11:32;;;;;;;;;2.00;2.00;;;;;20.21;54.08;101475.50;110224;1264;18811;-38
2023/04/08 02:13:59;;;;;;;;;4.00;2.00;;;;;20.21;54.01;101475.57;110222;1251;20852;-38
2023/04/08 02:16:27;;;;;;;;;2.00;2.00;;;;;20.20;54.20;101480.14;110215;1251;19634;-39
2023/04/08 02:18:54;;;;;;;;;2.00;2.00;;;;;20.21;54.04;101488.80;110184;1264;22143;-39
2023/04/08 02:21:22;;;;;;;;;1.00;1.00;;;;;20.21;54.06;101493.36;110190;1251;22584;-39
2023/04/08 02:23:50;;;;;;;;;2.00;2.00;;;;;20.20;54.02;101493.02;110226;1264;19576;-39
2023/04/08 02:26:17;;;;;;;;;2.00;2.00;;;;;20.21;54.03;101492.47;110242;1264;22735;-38
2023/04/08 02:28:45;;;;;;;;;2.67;2.67;;;;;20.20;54.12;101492.50;110295;1264;19567;-40
2023/04/08 02:31:13;;;;;;;;;2.00;2.00;;;;;20.21;53.93;101495.91;110233;1264;18368;-39
2023/04/08 02:33:41;;;;;;;;;4.00;4.00;;;;;20.20;53.89;101496.48;110292;1249;20169;-40
2023/04/08 02:36:08;;;;;;;;;2.00;2.00;;;;;20.20;54.06;101496.52;110229;1251;21906;-39
2023/04/08 02:38:36;;;;;;;;;2.00;1.00;;;;;20.19;54.22;101503.32;110211;1251;18374;-39
2023/04/08 02:41:03;;;;;;;;;2.00;2.00;;;;;20.20;54.17;101502.71;110182;1251;22771;-39
2023/04/08 02:43:31;;;;;;;;;2.00;2.00;;;;;20.20;54.00;101507.73;110167;1251;19502;-39
2023/04/08 02:46:01;;;;;;;;;2.00;2.00;;;;;20.19;54.00;101506.78;110227;1264;19604;-39
2023/04/08 02:48:29;;;;;;;;;1.00;1.00;;;;;20.19;54.00;101507.36;110176;1250;22648;-39
2023/04/08 02:50:57;;;;;;;;;2.00;2.00;;;;;20.19;54.04;101509.16;110212;1251;20733;-39
2023/04/08 02:53:24;;;;;;;;;1.00;1.00;;;;;20.18;53.81;101511.95;110224;1250;19635;-39
2023/04/08 02:55:52;;;;;;;;;2.00;2.00;;;;;20.19;53.93;101515.90;110198;1264;22684;-39
2023/04/08 02:58:20;;;;;;;;;2.00;1.00;;;;;20.19;53.93;101515.70;110168;1264;22697;-41
2023/04/08 03:00:47;;;;;;;;;1.00;1.00;;;;;20.19;53.87;101515.88;110204;1264;19538;-38
2023/04/08 03:03:15;;;;;;;;;1.00;1.00;;;;;20.19;53.83;101519.16;110204;1251;19884;-38
2023/04/08 03:05:42;;;;;;;;;2.00;2.00;;;;;20.19;53.88;101522.98;110200;1264;19374;-39
2023/04/08 03:08:10;;;;;;;;;3.00;3.00;;;;;20.19;53.99;101526.25;110192;1264;18854;-39
2023/04/08 03:10:37;;;;;;;;;1.00;1.00;;;;;20.18;53.86;101524.48;110231;1250;20214;-39
2023/04/08 03:13:04;;;;;;;;;2.00;2.00;;;;;20.19;53.97;101525.88;110210;1249;20726;-40
2023/04/08 03:15:32;;;;;;;;;1.00;1.00;;;;;20.18;54.01;101531.14;110193;1251;19555;-40
2023/04/08 03:17:59;;;;;;;;;1.00;1.00;;;;;20.19;53.77;101531.32;110231;1264;22840;-41
2023/04/08 03:20:27;;;;;;;;;2.00;2.00;;;;;20.19;53.82;101534.20;110200;1264;19356;-39
2023/04/08 03:22:55;;;;;;;;;2.00;2.00;;;;;20.19;53.76;101536.42;110210;1264;19515;-39
2023/04/08 03:25:22;;;;;;;;;2.00;1.00;;;;;20.19;53.98;101540.92;110196;1264;19915;-40
2023/04/08 03:27:49;;;;;;;;;4.00;2.00;;;;;20.18;53.76;101541.39;110239;1251;21813;-39
2023/04/08 03:30:17;;;;;;;;;1.50;1.50;;;;;20.17;53.78;101541.99;110207;1251;19693;-39
2023/04/08 03:32:44;;;;;;;;;2.00;2.00;;;;;20.18;53.83;101540.12;110204;1264;19934;-39
2023/04/08 03:35:12;;;;;;;;;1.00;1.00;;;;;20.18;53.84;101546.63;110205;1264;23519;-40
2023/04/08 03:37:39;;;;;;;;;2.00;1.50;;;;;20.19;53.97;101548.53;110185;1251;19599;-38
2023/04/08 03:40:07;;;;;;;;;1.00;1.00;;;;;20.18;53.98;101547.52;110181;1264;21660;-39
2023/04/08 03:42:34;;;;;;;;;2.00;2.00;;;;;20.17;53.91;101547.27;110142;1250;20660;-39
2023/04/08 03:45:02;;;;;;;;;2.00;2.00;;;;;20.17;53.65;101548.39;110173;1264;18496;-39
2023/04/08 03:47:29;;;;;;;;;2.00;2.00;;;;;20.17;53.95;101548.19;110223;1251;22189;-39
2023/04/08 03:49:57;;;;;;;;;1.00;1.00;;;;;20.16;53.81;101549.21;110220;1264;19216;-39
2023/04/08 03:52:24;;;;;;;;;1.00;1.00;;;;;20.16;53.88;101553.55;110198;1256;20410;-38
2023/04/08 03:54:52;;;;;;;;;1.00;1.00;;;;;20.16;53.82;101558.29;110176;1264;19080;-39
2023/04/08 03:57:19;;;;;;;;;2.00;2.00;;;;;20.17;53.75;101565.63;110211;1264;19937;-39
2023/04/08 03:59:47;;;;;;;;;1.00;1.00;;;;;20.17;53.74;101560.73;110209;1264;18573;-39
2023/04/08 04:02:14;;;;;;;;;3.00;3.00;;;;;20.16;53.81;101560.23;110213;1251;20012;-40
2023/04/08 04:04:42;;;;;;;;;2.00;2.00;;;;;20.16;53.71;101562.96;110210;1251;19732;-39
2023/04/08 04:07:09;;;;;;;;;1.00;1.00;;;;;20.17;53.82;101562.77;110213;1264;19747;-39
2023/04/08 04:09:36;;;;;;;;;1.00;1.00;;;;;20.16;53.67;101564.25;110223;1260;22235;-39
2023/04/08 04:12:04;;;;;;;;;2.00;2.00;;;;;20.16;53.64;101566.44;110182;1249;20657;-39
2023/04/08 04:14:31;;;;;;;;;1.00;1.00;;;;;20.16;53.68;101568.78;110218;1264;19620;-39
2023/04/08 04:16:59;;;;;;;;;1.00;1.00;;;;;20.16;53.77;101570.79;110215;1251;20198;-39
2023/04/08 04:19:26;;;;;;;;;2.00;1.00;;;;;20.16;53.67;101570.27;110190;1257;21629;-39
2023/04/08 04:21:54;;;;;;;;;1.00;1.00;;;;;20.16;53.58;101572.99;110182;1264;18524;-39
2023/04/08 04:24:21;;;;;;;;;2.00;2.00;;;;;20.16;53.66;101577.15;110210;1250;21582;-39
2023/04/08 04:26:48;;;;;;;;;1.00;1.00;;;;;20.15;53.74;101574.68;110183;1260;20782;-40
2023/04/08 04:29:16;;;;;;;;;1.00;1.00;;;;;20.15;53.51;101577.61;110220;1250;20719;-40
2023/04/08 04:31:43;;;;;;;;;2.00;2.00;;;;;20.15;53.62;101579.27;110165;1251;22557;-40
2023/04/08 04:34:11;;;;;;;;;1.00;1.00;;;;;20.16;53.58;101588.18;110212;1264;19335;-40
2023/04/08 04:36:38;;;;;;;;;2.00;2.00;;;;;20.14;53.61;101584.74;110203;1251;21918;-39
2023/04/08 04:39:06;;;;;;;;;1.00;1.00;;;;;20.15;53.60;101589.00;110205;1264;18624;-39
2023/04/08 04:41:37;;;;;;;;;2.00;2.00;;;;;20.15;53.57;101595.89;110188;1264;20679;-39
2023/04/08 04:44:05;;;;;;;;;2.00;2.00;;;;;20.15;53.58;101599.15;110220;1260;19967;-39
2023/04/08 04:46:33;;;;;;;;;2.50;2.50;;;;;20.15;53.63;101600.96;110233;1264;20020;-39
2023/04/08 04:49:00;;;;;;;;;4.00;4.00;;;;;20.14;53.63;101602.02;110209;1250;20722;-39
2023/04/08 04:51:27;;;;;;;;;;;;;;;20.17;53.79;101606.66;110198;1250;19563;-39
2023/04/08 04:53:55;;;;;;;;;4.00;2.00;;;;;20.19;53.57;101610.52;110209;1264;18653;-37
2023/04/08 04:56:22;;;;;;;;;2.00;2.00;;;;;20.23;53.69;101616.10;110154;1257;19328;-38
2023/04/08 04:58:50;;;;;;;;;1.00;1.00;;;;;20.25;54.10;101616.86;110161;1264;19560;-38
2023/04/08 05:01:17;;;;;;;;;7.00;7.00;;;;;20.23;54.59;101619.85;110234;1264;22726;-41
2023/04/08 05:03:45;;;;;;;;;9.50;8.00;;;;;20.18;54.12;101621.17;110207;1250;21030;-39
2023/04/08 05:06:12;;;;;;;;;9.00;7.50;;;;;20.14;53.74;101622.89;110192;1264;22894;-39
2023/04/08 05:08:40;;;;;;;;;11.00;10.00;;;;;20.11;53.04;101630.13;110237;1264;18649;-39
2023/04/08 05:11:07;;;;;;;;;13.33;10.00;;;;;20.07;52.36;101636.83;110196;1251;20927;-40
2023/04/08 05:13:35;;;;;;;;;13.00;11.00;;;;;20.03;51.71;101629.80;110179;1264;18944;-40
2023/04/08 05:16:02;;;;;;;;;11.33;11.00;;;;;19.99;51.00;101632.27;110229;1249;21417;-39
2023/04/08 05:18:29;;;;;;;;;14.00;13.50;;;;;19.98;50.56;101633.34;110190;1264;19387;-40
2023/04/08 05:20:57;;;;;;;;;15.67;14.33;;;;;19.95;49.62;101642.55;110206;1251;21439;-39
2023/04/08 05:23:24;;;;;;;;;17.00;15.50;;;;;19.94;48.92;101637.72;110188;1264;18866;-39
2023/04/08 05:25:52;;;;;;;;;17.00;16.00;;;;;19.93;48.44;101644.02;110163;1264;22223;-39
2023/04/08 05:28:19;;;;;;;;;17.00;16.00;;;;;19.91;47.80;101645.96;110218;1251;19924;-40
2023/04/08 05:30:47;;;;;;;;;16.00;14.00;;;;;19.89;47.80;101650.40;110240;1264;19977;-40
2023/04/08 05:33:15;;;;;;;;;16.00;14.50;;;;;19.90;47.36;101650.81;110156;1251;20555;-40
2023/04/08 05:35:42;;;;;;;;;14.50;11.50;;;;;19.91;47.05;101651.04;109961;1251;22596;-39
2023/04/08 05:38:10;;;;;;;;;22.00;14.00;;;;;19.90;46.66;101649.55;110215;1264;18800;-39
2023/04/08 05:40:37;;;;;;;;;13.00;11.67;;;;;19.89;46.54;101650.87;110192;1250;19369;-38
2023/04/08 05:43:04;;;;;;;;;16.00;13.00;;;;;19.87;46.13;101652.02;110199;1264;19996;-40
2023/04/08 05:45:32;;;;;;;;;13.00;12.00;;;;;19.90;46.52;101648.06;110175;1251;20145;-39
2023/04/08 05:47:59;;;;;;;;;14.50;13.00;;;;;19.96;46.59;101654.27;110213;1250;21934;-38
2023/04/08 05:50:27;;;;;;;;;13.00;10.00;;;;;19.99;46.54;101657.85;110205;1264;18585;-40
2023/04/08 05:52:54;;;;;;;;;12.00;11.00;;;;;20.05;46.59;101658.14;110207;1264;18698;-39
2023/04/08 05:55:21;;;;;;;;;9.00;9.00;;;;;20.08;46.63;101657.27;110232;1251;20911;-39
2023/04/08 05:57:49;;;;;;;;;10.67;9.33;;;;;20.10;46.95;101665.17;110256;1264;18608;-39
2023/04/08 06:00:16;;;;;;;;;10.00;10.00;;;;;20.14;47.09;101669.30;110198;1264;20037;-40
2023/04/08 06:02:44;;;;;;;;;8.00;8.00;;;;;20.16;47.13;101668.27;110248;1264;20715;-40
2023/04/08 06:05:11;;;;;;;;;10.00;9.00;;;;;20.18;47.54;101674.77;110190;1264;20112;-40
2023/04/08 06:07:39;;;;;;;;;8.00;8.00;;;;;20.23;47.92;101675.88;110147;1264;18981;-40
2023/04/08 06:10:06;;;;;;;;;7.00;7.00;;;;;20.29;47.98;101677.29;110177;1264;20702;-40
2023/04/08 06:12:34;;;;;;;;;8.00;8.00;;;;;20.32;48.15;101678.44;110225;1251;19636;-39
2023/04/08 06:15:01;;;;;;;;;7.00;6.33;;;;;20.36;48.51;101680.42;110207;1251;20124;-39
2023/04/08 06:17:29;;;;;;;;;4.00;4.00;;;;;20.41;48.75;101686.30;110224;1264;19239;-39
2023/04/08 06:19:56;;;;;;;;;7.00;7.00;;;;;20.42;49.00;101685.41;110214;1250;22361;-40
2023/04/08 06:22:24;;;;;;;;;5.00;5.00;;;;;20.44;49.23;101689.92;110215;1264;18619;-41
2023/04/08 06:24:51;;;;;;;;;7.00;5.00;;;;;20.43;49.58;101692.23;110200;1257;19701;-40
2023/04/08 06:27:19;;;;;;;;;8.00;7.00;;;;;20.39;49.24;101696.47;110194;1264;19592;-40
2023/04/08 06:29:47;;;;;;;;;8.00;8.00;;;;;20.36;49.20;101694.77;110222;1264;19969;-40
2023/04/08 06:32:14;;;;;;;;;8.00;8.00;;;;;20.34;48.69;101700.44;110238;1251;20724;-40
2023/04/08 06:34:42;;;;;;;;;9.00;8.00;;;;;20.30;48.13;101705.30;110204;1264;18382;-40
2023/04/08 06:37:09;;;;;;;;;13.00;11.00;;;;;20.27;47.54;101709.75;110204;1251;18621;-40
2023/04/08 06:39:36;;;;;;;;;8.00;8.00;;;;;20.28;47.39;101706.44;110194;1264;20747;-40
2023/04/08 06:42:05;;;;;;;;;12.33;11.00;;;;;20.30;47.30;101710.65;110198;1264;18578;-40
2023/04/08 06:44:32;;;;;;;;;12.33;11.00;;;;;20.29;47.02;101711.63;110203;1251;19950;-40
2023/04/08 06:47:00;;;;;;;;;10.50;10.50;;;;;20.29;46.84;101713.63;110234;1264;19378;-39
2023/04/08 06:49:27;;;;;;;;;13.50;10.00;;;;;20.36;46.92;101714.87;110242;1250;23009;-42
2023/04/08 06:51:54;;;;;;;;;11.00;10.00;;;;;20.40;47.25;101721.00;110202;1264;18853;-40
2023/04/08 06:54:22;;;;;;;;;10.00;10.00;;;;;20.44;47.26;101723.69;110200;1264;19350;-42
2023/04/08 06:56:49;;;;;;;;;8.67;7.00;;;;;20.48;47.47;101719.03;110264;1257;19907;-40
2023/04/08 06:59:17;;;;;;;;;10.00;10.00;;;;;20.51;47.60;101723.94;110266;1264;18659;-42
2023/04/08 07:01:45;;;;;;;;;8.50;7.00;;;;;20.55;48.15;101727.27;110274;1251;20887;-38
2023/04/08 07:04:13;;;;;;;;;5.00;5.00;;;;;20.55;48.58;101727.06;110249;1264;22771;-37
2023/04/08 07:06:40;;;;;;;;;8.00;7.00;;;;;20.54;48.86;101730.77;110184;1264;18670;-38
2023/04/08 07:09:07;;;;;;;;;7.00;7.00;;;;;20.51;49.28;101737.20;110194;1250;19513;-38
2023/04/08 07:11:35;;;;;;;;;5.00;5.00;;;;;20.48;49.66;101739.73;110222;1264;18478;-39
2023/04/08 07:14:02;;;;;;;;;5.00;5.00;;;;;20.46;50.02;101742.10;110189;1264;22340;-38
2023/04/08 07:16:30;;;;;;;;;4.67;4.00;;;;;20.48;50.47;101745.91;110172;1251;20771;-38
2023/04/08 07:18:58;;;;;;;;;5.00;4.50;;;;;20.48;50.79;101750.27;110186;1251;22911;-38
2023/04/08 07:21:25;;;;;;;;;7.33;4.67;;;;;20.48;51.28;101748.80;110236;1264;18637;-41
2023/04/08 07:23:53;;;;;;;;;5.00;4.00;;;;;20.53;52.10;101750.48;110180;1264;20811;-38
2023/04/08 07:26:21;;;;;;;;;8.00;5.00;;;;;20.54;52.41;101746.56;110207;1264;18520;-39
2023/04/08 07:28:48;;;;;;;;;4.00;4.00;;;;;20.55;52.75;101757.55;110214;1260;18643;-39
2023/04/08 07:31:16;;;;;;;;;5.00;5.00;;;;;20.52;52.78;101761.28;110243;1264;20998;-38
2023/04/08 07:33:43;;;;;;;;;4.00;4.00;;;;;20.51;52.80;101761.37;110248;1264;18419;-38
2023/04/08 07:36:10;;;;;;;;;4.00;2.00;;;;;20.51;53.06;101766.95;110218;1261;20081;-41
2023/04/08 07:38:38;;;;;;;;;5.00;4.00;;;;;20.52;53.19;101771.09;110198;1251;21293;-40
2023/04/08 07:41:05;;;;;;;;;4.00;4.00;;;;;20.54;53.21;101774.17;110234;1251;22222;-40
2023/04/08 07:43:35;;;;;;;;;5.00;5.00;;;;;20.55;53.25;101772.07;110250;1250;18581;-39
2023/04/08 07:46:03;;;;;;;;;4.00;2.00;;;;;20.58;53.38;101773.58;110199;1264;21597;-38
2023/04/08 07:48:31;;;;;;;;;8.00;7.00;;;;;20.59;53.61;101774.21;110187;1251;22674;-39
2023/04/08 07:50:58;;;;;;;;;5.00;5.00;;;;;20.60;53.61;101775.42;110214;1264;20233;-39
2023/04/08 07:53:26;;;;;;;;;7.00;5.00;;;;;20.60;53.86;101779.02;110159;1264;20974;-39
2023/04/08 07:55:54;;;;;;;;;7.00;7.00;;;;;20.60;53.91;101782.55;110190;1264;22795;-39
2023/04/08 07:58:21;;;;;;;;;5.00;5.00;;;;;20.64;53.72;101783.16;110214;1264;19860;-39
2023/04/08 08:00:48;;;;;;;;;5.67;5.67;;;;;20.63;53.61;101788.18;110208;1264;19434;-39
2023/04/08 08:03:16;;;;;;;;;4.00;4.00;;;;;20.59;53.35;101791.30;110198;1264;22988;-40
2023/04/08 08:05:44;;;;;;;;;5.00;5.00;;;;;20.51;53.36;101787.10;110234;1264;20497;-39
2023/04/08 08:08:11;;;;;;;;;32.33;26.33;;;;;20.46;52.80;101787.41;110212;1250;21054;-40
2023/04/08 08:10:39;;;;;;;;;104.50;73.00;;;;;20.45;52.42;101793.73;110195;1264;18267;-39
2023/04/08 08:13:06;;;;;;;;;114.00;83.00;;;;;20.47;52.33;101797.05;110187;1251;20159;-40
2023/04/08 08:15:34;;;;;;;;;109.00;74.00;;;;;20.46;52.64;101799.05;110196;1251;22775;-40
2023/04/08 08:18:01;;;;;;;;;87.00;64.50;;;;;20.45;52.66;101801.54;110209;1264;22727;-39
2023/04/08 08:20:29;;;;;;;;;74.00;57.00;;;;;20.42;52.13;101799.85;110215;1251;22596;-40
2023/04/08 08:22:57;;;;;;;;;69.00;51.00;;;;;20.36;50.96;101802.36;110191;1251;20779;-40
2023/04/08 08:25:25;;;;;;;;;52.00;42.00;;;;;20.33;50.75;101810.13;110191;1251;18578;-40
2023/04/08 08:27:54;;;;;;;;;48.00;37.50;;;;;20.29;50.04;101815.40;110079;1251;137675;-41
2023/04/08 08:30:21;;;;;;;;;41.50;37.00;;;;;20.27;49.20;101811.81;110153;1257;23657;-41
2023/04/08 08:32:50;;;;;;;;;34.00;28.00;;;;;20.23;48.64;101807.82;110128;1251;20011;-40
2023/04/08 08:35:18;;;;;;;;;37.00;26.00;;;;;20.24;48.13;101807.18;110106;1264;22731;-40
2023/04/08 08:37:45;;;;;;;;;30.67;28.67;;;;;20.25;47.58;101807.46;110199;1264;22344;-41
2023/04/08 08:40:13;;;;;;;;;28.00;25.00;;;;;20.30;47.40;101802.45;110186;1251;20040;-41
2023/04/08 08:42:40;;;;;;;;;26.00;23.00;;;;;20.35;47.74;101798.90;110150;1251;20171;-39
2023/04/08 08:45:08;;;;;;;;;27.00;24.00;;;;;20.38;47.55;101799.85;110168;1264;19242;-40
2023/04/08 08:47:35;;;;;;;;;29.00;22.00;;;;;20.36;46.47;101798.81;110141;1264;18590;-39
2023/04/08 08:50:03;;;;;;;;;24.50;22.50;;;;;20.27;45.86;101799.64;110138;1264;18758;-39
2023/04/08 08:52:31;;;;;;;;;25.00;20.00;;;;;20.23;45.23;101802.23;110233;1250;22333;-39
2023/04/08 08:54:59;;;;;;;;;30.00;28.00;;;;;20.22;44.93;101801.20;110152;1264;18589;-38
2023/04/08 08:57:26;;;;;;;;;25.00;23.00;;;;;20.25;44.88;101798.73;110203;1250;20759;-39
2023/04/08 08:59:54;;;;;;;;;19.00;17.00;;;;;20.27;44.74;101801.21;110173;1264;19365;-39
2023/04/08 09:02:21;;;;;;;;;21.00;17.00;;;;;20.32;44.89;101800.06;110210;1264;22133;-40
2023/04/08 09:04:49;;;;;;;;;16.50;14.00;;;;;20.38;44.93;101799.31;110202;1264;20041;-39
2023/04/08 09:07:16;;;;;;;;;19.00;16.00;;;;;20.45;45.30;101803.74;110248;1251;20775;-41
2023/04/08 09:09:44;;;;;;;;;17.00;14.00;;;;;20.50;45.71;101806.66;110234;1264;18993;-40
2023/04/08 09:12:12;;;;;;;;;19.00;16.00;;;;;20.52;46.03;101807.41;110235;1257;22737;-40
2023/04/08 09:14:40;;;;;;;;;15.00;15.00;;;;;20.55;46.20;101807.13;110256;1250;23128;-41
2023/04/08 09:17:07;;;;;;;;;17.00;16.00;;;;;20.58;46.60;101807.02;110217;1264;20147;-40
2023/04/08 09:19:35;;;;;;;;;17.00;16.00;;;;;20.60;46.60;101808.46;110131;1264;19090;-40
2023/04/08 09:22:02;;;;;;;;;16.00;16.00;;;;;20.60;46.82;101811.22;110229;1264;20928;-41
2023/04/08 09:24:30;;;;;;;;;23.00;20.00;;;;;20.56;47.10;101809.98;110232;1264;18809;-41
2023/04/08 09:26:57;;;;;;;;;25.33;25.00;;;;;20.50;46.50;101811.60;110180;1264;22785;-41
2023/04/08 09:29:25;;;;;;;;;;;;;;;20.45;45.80;101818.41;110187;1251;19308;-40
2023/04/08 09:31:52;;;;;;;;;27.50;26.00;;;;;20.37;45.03;101819.33;110227;1256;18676;-41
2023/04/08 09:34:22;;;;;;;;;28.00;27.00;;;;;20.34;44.67;101818.95;110210;1251;19175;-41
2023/04/08 09:36:49;;;;;;;;;30.00;26.00;;;;;20.32;44.11;101816.64;110243;1257;22168;-40
2023/04/08 09:39:17;;;;;;;;;25.50;23.50;;;;;20.30;43.60;101810.64;110227;1249;22261;-39
2023/04/08 09:41:44;;;;;;;;;28.00;26.50;;;;;20.30;43.44;101808.66;110191;1264;20186;-40
2023/04/08 09:44:12;;;;;;;;;26.00;25.50;;;;;20.23;42.87;101812.17;110214;1251;21400;-41
2023/04/08 09:46:39;;;;;;;;;28.00;23.00;;;;;20.21;42.70;101813.15;110171;1264;23370;-44
2023/04/08 09:49:07;;;;;;;;;26.00;25.00;;;;;20.23;42.68;101815.52;110187;1250;21364;-41
2023/04/08 09:51:35;;;;;;;;;30.33;25.67;;;;;20.24;42.55;101812.77;110214;1259;21038;-40
2023/04/08 09:54:03;;;;;;;;;30.00;25.00;;;;;20.20;42.15;101812.09;110198;1264;22290;-41
2023/04/08 09:56:30;;;;;;;;;21.67;20.67;;;;;20.19;41.72;101811.67;110188;1264;20091;-42
2023/04/08 09:58:57;;;;;;;;;22.00;20.00;;;;;20.15;41.48;101809.88;110189;1264;19459;-41
2023/04/08 10:01:25;;;;;;;;;24.00;22.00;;;;;20.13;41.47;101813.52;110174;1251;19935;-39
2023/04/08 10:03:53;;;;;;;;;26.00;25.00;;;;;20.14;41.30;101809.20;110243;1264;18922;-39
2023/04/08 10:06:20;;;;;;;;;26.00;22.00;;;;;20.11;40.99;101809.34;110189;1264;20566;-42
2023/04/08 10:08:48;;;;;;;;;25.00;22.00;;;;;20.10;40.98;101808.54;110211;1264;21563;-39
2023/04/08 10:11:15;;;;;;;;;25.50;25.00;;;;;20.10;40.87;101806.77;110180;1264;18706;-40
2023/04/08 10:13:43;;;;;;;;;24.00;20.00;;;;;20.11;40.67;101806.67;110198;1264;19355;-41
2023/04/08 10:16:10;;;;;;;;;25.00;23.00;;;;;20.12;40.91;101802.38;110187;1250;19969;-41
2023/04/08 10:18:38;;;;;;;;;22.00;19.50;;;;;20.10;40.62;101804.39;110184;1264;21732;-39
2023/04/08 10:21:05;;;;;;;;;23.50;21.50;;;;;20.11;40.65;101804.08;110178;1249;19338;-41
2023/04/08 10:23:33;;;;;;;;;23.50;22.00;;;;;20.11;40.77;101797.54;110172;1266;22005;-40
2023/04/08 10:26:01;;;;;;;;;29.50;24.50;;;;;20.11;40.66;101803.23;110216;1264;18727;-40
2023/04/08 10:28:28;;;;;;;;;24.00;23.33;;;;;20.12;40.50;101800.06;110157;1264;19366;-40
2023/04/08 10:30:56;;;;;;;;;22.00;19.00;;;;;20.12;40.64;101798.02;110215;1264;22337;-42
2023/04/08 10:33:24;;;;;;;;;21.50;17.50;;;;;20.12;40.55;101797.83;110199;1264;20245;-40
2023/04/08 10:35:52;;;;;;;;;30.00;23.00;;;;;20.12;40.52;101795.98;110254;1264;19437;-40
2023/04/08 10:38:19;;;;;;;;;20.00;17.00;;;;;20.12;40.63;101796.59;110249;1258;18834;-41
2023/04/08 10:40:47;;;;;;;;;22.00;21.00;;;;;20.11;40.67;101792.64;110202;1264;20271;-43
2023/04/08 10:43:14;;;;;;;;;20.00;19.00;;;;;20.08;40.58;101791.18;110191;1264;19376;-40
2023/04/08 10:45:42;;;;;;;;;22.00;19.33;;;;;20.08;40.59;101790.46;110209;1264;18929;-41
2023/04/08 10:48:09;;;;;;;;;18.00;18.00;;;;;20.07;40.40;101789.29;110214;1257;23185;-41
2023/04/08 10:50:37;;;;;;;;;22.00;19.00;;;;;20.06;40.25;101788.77;110247;1264;22195;-40
2023/04/08 10:53:04;;;;;;;;;25.00;22.00;;;;;20.08;40.48;101786.65;110200;1264;18606;-40
2023/04/08 10:55:32;;;;;;;;;20.00;19.00;;;;;20.06;40.11;101781.01;110117;1264;18863;-39
2023/04/08 10:58:00;;;;;;;;;23.00;18.67;;;;;20.03;40.10;101782.60;110196;1264;21924;-41
2023/04/08 11:00:27;;;;;;;;;24.50;20.00;;;;;19.96;39.86;101778.17;110252;1264;20187;-41
2023/04/08 11:02:55;;;;;;;;;19.00;17.00;;;;;19.95;39.73;101782.73;110207;1250;20114;-40
2023/04/08 11:05:23;;;;;;;;;28.00;25.00;;;;;19.99;39.74;101783.09;110197;1264;19304;-40
2023/04/08 11:07:50;;;;;;;;;17.00;17.00;;;;;20.01;39.57;101781.42;110223;1257;18554;-41
2023/04/08 11:10:18;;;;;;;;;22.00;19.00;;;;;20.01;39.60;101780.37;110209;1264;22588;-40
2023/04/08 11:12:45;;;;;;;;;20.00;19.00;;;;;20.02;39.53;101778.81;110208;1264;20662;-40